Time;durP1;ratioP1;P1;durP2;ratioP2;P2;SDS_P1;SDS_P2;PMS_P1;PMS_P2;Temp;Humidity;BMP_temperature;BMP_pressure;BME280_temperature;BME280_humidity;BME280_pressure;Samples;Min_cycle;Max_cycle;Signal;HPM_P1;HPM_P2
2022/06/11 00:02:03;;;;;;;1.80;1.70;;;;;;;;;;5034737;28;20318;-63
2022/06/11 00:04:51;;;;;;;1.67;1.57;;;;;;;;;;5036838;28;20211;-63
2022/06/11 00:07:38;;;;;;;1.80;1.70;;;;;;;;;;5042451;28;20207;-63
2022/06/11 00:10:26;;;;;;;1.67;1.57;;;;;;;;;;5037486;28;20668;-63
2022/06/11 00:13:14;;;;;;;2.27;2.00;;;;;;;;;;5040573;28;20204;-63
2022/06/11 00:16:01;;;;;;;2.00;1.47;;;;;;;;;;5036930;28;20207;-63
2022/06/11 00:18:50;;;;;;;1.37;1.27;;;;;;;;;;5046006;28;20227;-63
2022/06/11 00:21:40;;;;;;;1.60;1.50;;;;;;;;;;5041758;28;20260;-62
2022/06/11 00:24:28;;;;;;;1.60;1.50;;;;;;;;;;5043623;28;20203;-62
2022/06/11 00:27:17;;;;;;;1.70;1.60;;;;;;;;;;5037045;28;20714;-62
2022/06/11 00:30:06;;;;;;;1.70;1.60;;;;;;;;;;5037694;28;20204;-62
2022/06/11 00:32:55;;;;;;;1.50;1.40;;;;;;;;;;5039271;28;20285;-62
2022/06/11 00:35:42;;;;;;;1.67;1.53;;;;;;;;;;5031621;28;20429;-63
2022/06/11 00:38:29;;;;;;;1.60;1.50;;;;;;;;;;5041361;28;20220;-63
2022/06/11 00:41:18;;;;;;;1.33;1.27;;;;;;;;;;5041034;28;20203;-63
2022/06/11 00:44:06;;;;;;;1.60;1.50;;;;;;;;;;5035671;28;20775;-63
2022/06/11 00:47:01;;;;;;;1.37;1.33;;;;;;;;;;5032719;28;20226;-61
2022/06/11 00:49:51;;;;;;;1.33;1.23;;;;;;;;;;5038544;28;20782;-63
2022/06/11 00:52:43;;;;;;;1.57;1.47;;;;;;;;;;5039382;28;20871;-63
2022/06/11 00:55:33;;;;;;;1.40;1.30;;;;;;;;;;5039721;28;20324;-63
2022/06/11 00:58:24;;;;;;;1.80;1.70;;;;;;;;;;5040159;28;20228;-63
2022/06/11 01:01:15;;;;;;;2.30;1.40;;;;;;;;;;5042006;28;20310;-63
2022/06/11 01:04:24;;;;;;;2.60;1.57;;;;;;;;;;5029843;28;20218;-63
2022/06/11 01:07:52;;;;;;;1.77;1.67;;;;;;;;;;5034364;28;20193;-63
2022/06/11 01:11:10;;;;;;;1.60;1.50;;;;;;;;;;5029147;28;20219;-62
2022/06/11 01:14:11;;;;;;;1.50;1.40;;;;;;;;;;5037288;28;20255;-62
2022/06/11 01:17:11;;;;;;;1.73;1.20;;;;;;;;;;5039606;28;20207;-62
2022/06/11 01:20:11;;;;;;;1.50;1.30;;;;;;;;;;5037129;28;20739;-63
2022/06/11 01:23:39;;;;;;;1.10;1.10;;;;;;;;;;5039690;28;20277;-63
2022/06/11 01:26:38;;;;;;;1.57;1.47;;;;;;;;;;5036754;28;20226;-62
2022/06/11 01:29:46;;;;;;;1.13;1.03;;;;;;;;;;5040886;28;20212;-62
2022/06/11 01:32:43;;;;;;;1.77;1.37;;;;;;;;;;5038018;28;20271;-62
2022/06/11 01:35:42;;;;;;;1.53;1.43;;;;;;;;;;5039542;28;20213;-62
2022/06/11 01:38:34;;;;;;;1.83;1.50;;;;;;;;;;5044969;28;20235;-62
2022/06/11 01:41:27;;;;;;;1.30;1.03;;;;;;;;;;5039634;28;20212;-63
2022/06/11 01:44:19;;;;;;;1.80;1.67;;;;;;;;;;5038905;28;20315;-62
2022/06/11 01:47:09;;;;;;;1.60;1.50;;;;;;;;;;5045448;28;20207;-63
2022/06/11 01:49:56;;;;;;;1.40;1.30;;;;;;;;;;5032183;28;20216;-63
2022/06/11 01:53:01;;;;;;;1.30;1.20;;;;;;;;;;5040520;28;20296;-63
2022/06/11 01:56:01;;;;;;;1.57;1.47;;;;;;;;;;5038547;28;20262;-63
2022/06/11 01:59:07;;;;;;;1.47;1.40;;;;;;;;;;5043826;28;20669;-63
2022/06/11 02:02:06;;;;;;;1.20;1.10;;;;;;;;;;5042137;28;20579;-62
2022/06/11 02:05:02;;;;;;;1.50;1.40;;;;;;;;;;5039333;28;20212;-62
2022/06/11 02:08:00;;;;;;;1.40;1.27;;;;;;;;;;5040866;28;20266;-62
2022/06/11 02:10:52;;;;;;;1.20;1.10;;;;;;;;;;5043891;28;20212;-63
2022/06/11 02:13:45;;;;;;;1.37;1.27;;;;;;;;;;5038396;28;20215;-64
2022/06/11 02:16:36;;;;;;;1.50;1.40;;;;;;;;;;5040328;28;20214;-63
2022/06/11 02:19:26;;;;;;;1.37;1.23;;;;;;;;;;5046078;28;20227;-63
2022/06/11 02:22:19;;;;;;;2.13;1.37;;;;;;;;;;5039161;28;20566;-63
2022/06/11 02:25:11;;;;;;;1.00;1.00;;;;;;;;;;5044846;28;20199;-62
2022/06/11 02:28:02;;;;;;;1.50;1.40;;;;;;;;;;5039811;28;20237;-63
2022/06/11 02:30:51;;;;;;;1.73;1.40;;;;;;;;;;5036137;28;20213;-62
2022/06/11 02:33:38;;;;;;;1.37;1.27;;;;;;;;;;5033378;28;20214;-63
2022/06/11 02:36:28;;;;;;;1.40;1.20;;;;;;;;;;5044546;28;20235;-62
2022/06/11 02:39:16;;;;;;;1.60;1.40;;;;;;;;;;5042323;28;20655;-62
2022/06/11 02:42:07;;;;;;;1.50;1.40;;;;;;;;;;5042817;28;20208;-63
2022/06/11 02:44:55;;;;;;;1.30;1.20;;;;;;;;;;5036766;28;20216;-62
2022/06/11 02:47:44;;;;;;;2.10;1.37;;;;;;;;;;5044511;28;20733;-62
2022/06/11 02:50:34;;;;;;;1.37;1.20;;;;;;;;;;5037992;28;20706;-62
2022/06/11 02:53:21;;;;;;;1.43;1.13;;;;;;;;;;5043728;28;20263;-62
2022/06/11 02:56:09;;;;;;;1.50;1.40;;;;;;;;;;5036948;28;20215;-63
2022/06/11 02:58:56;;;;;;;0.93;0.90;;;;;;;;;;5037974;28;20270;-62
2022/06/11 03:01:44;;;;;;;1.10;1.00;;;;;;;;;;5039183;28;20228;-63
2022/06/11 03:04:32;;;;;;;1.40;1.30;;;;;;;;;;5035096;28;20240;-62
2022/06/11 03:07:19;;;;;;;1.40;1.30;;;;;;;;;;5040102;28;20367;-62
2022/06/11 03:10:06;;;;;;;1.87;1.50;;;;;;;;;;5049156;28;20682;-62
2022/06/11 03:12:55;;;;;;;1.10;1.10;;;;;;;;;;5043926;28;20690;-63
2022/06/11 03:15:42;;;;;;;1.53;1.43;;;;;;;;;;5044439;28;20585;-63
2022/06/11 03:18:30;;;;;;;1.43;1.33;;;;;;;;;;5040648;28;20233;-62
2022/06/11 03:21:17;;;;;;;1.33;1.23;;;;;;;;;;5041001;28;20851;-62
2022/06/11 03:24:05;;;;;;;1.30;1.20;;;;;;;;;;5035115;28;20761;-63
2022/06/11 03:26:53;;;;;;;0.80;0.80;;;;;;;;;;5042397;28;20248;-62
2022/06/11 03:29:41;;;;;;;2.13;1.23;;;;;;;;;;5042529;28;20287;-63
2022/06/11 03:32:28;;;;;;;1.90;1.27;;;;;;;;;;5038196;28;20211;-62
2022/06/11 03:35:15;;;;;;;1.10;1.07;;;;;;;;;;5033740;28;20217;-62
2022/06/11 03:38:03;;;;;;;1.07;1.07;;;;;;;;;;5040586;28;20605;-62
2022/06/11 03:40:50;;;;;;;1.07;1.07;;;;;;;;;;5039158;28;20217;-63
2022/06/11 03:43:38;;;;;;;1.30;1.20;;;;;;;;;;5038825;28;20217;-62
2022/06/11 03:46:28;;;;;;;1.10;1.00;;;;;;;;;;5043005;28;20318;-63
2022/06/11 03:49:18;;;;;;;1.50;1.40;;;;;;;;;;5035750;28;20205;-63
2022/06/11 03:52:06;;;;;;;1.33;1.20;;;;;;;;;;5037360;28;20204;-62
2022/06/11 03:54:55;;;;;;;1.30;1.20;;;;;;;;;;5037601;28;20220;-63
2022/06/11 03:57:42;;;;;;;1.17;1.13;;;;;;;;;;5035698;28;20216;-62
2022/06/11 04:03:38;;;;;;;1.20;1.20;;;;;;;;;;5035251;28;20211;-62
2022/06/11 04:06:29;;;;;;;1.13;1.07;;;;;;;;;;5042604;28;20223;-62
2022/06/11 04:09:19;;;;;;;1.47;1.00;;;;;;;;;;5044507;28;20641;-63
2022/06/11 04:12:09;;;;;;;1.47;1.37;;;;;;;;;;5041005;28;20209;-62
2022/06/11 04:14:56;;;;;;;1.03;1.03;;;;;;;;;;5036652;28;20238;-63
2022/06/11 04:17:44;;;;;;;1.40;1.30;;;;;;;;;;5035577;28;20213;-63
2022/06/11 04:20:32;;;;;;;1.47;1.30;;;;;;;;;;5039242;28;20289;-62
2022/06/11 04:23:20;;;;;;;1.87;1.40;;;;;;;;;;5039427;28;20653;-63
2022/06/11 04:26:09;;;;;;;1.53;1.43;;;;;;;;;;5041449;28;20212;-63
2022/06/11 04:28:59;;;;;;;1.50;1.40;;;;;;;;;;5048345;28;20228;-62
2022/06/11 04:31:47;;;;;;;1.50;1.40;;;;;;;;;;5037635;28;20206;-62
2022/06/11 04:34:35;;;;;;;1.97;1.60;;;;;;;;;;5028006;28;20249;-62
2022/06/11 04:37:26;;;;;;;1.47;1.37;;;;;;;;;;5040544;28;20220;-62
2022/06/11 04:40:17;;;;;;;1.43;1.30;;;;;;;;;;5041315;28;20203;-62
2022/06/11 04:43:04;;;;;;;1.47;1.37;;;;;;;;;;5042503;28;20606;-63
2022/06/11 04:45:52;;;;;;;1.60;1.50;;;;;;;;;;5037945;28;20213;-62
2022/06/11 04:48:39;;;;;;;1.20;1.10;;;;;;;;;;5045708;28;20256;-62
2022/06/11 04:51:27;;;;;;;1.43;1.33;;;;;;;;;;5038087;28;20220;-63
2022/06/11 04:54:16;;;;;;;1.27;1.17;;;;;;;;;;5035778;28;20212;-63
2022/06/11 04:57:03;;;;;;;1.67;1.40;;;;;;;;;;5033302;28;20677;-63
2022/06/11 04:59:50;;;;;;;1.37;1.20;;;;;;;;;;5038863;28;20271;-63
2022/06/11 05:02:38;;;;;;;1.47;1.27;;;;;;;;;;5043674;28;20210;-62
2022/06/11 05:05:25;;;;;;;1.43;1.27;;;;;;;;;;5039876;28;20989;-63
2022/06/11 05:08:13;;;;;;;2.17;1.40;;;;;;;;;;5045614;28;20217;-63
2022/06/11 05:11:02;;;;;;;1.50;1.40;;;;;;;;;;5041151;28;20291;-62
2022/06/11 05:13:49;;;;;;;2.00;1.50;;;;;;;;;;5039765;28;20221;-62
2022/06/11 05:16:37;;;;;;;1.43;1.30;;;;;;;;;;5040388;28;20212;-63
2022/06/11 05:19:25;;;;;;;1.30;1.20;;;;;;;;;;5041678;28;20327;-63
2022/06/11 05:22:12;;;;;;;2.27;1.73;;;;;;;;;;5043736;28;20210;-63
2022/06/11 05:24:59;;;;;;;2.53;1.40;;;;;;;;;;5042104;28;20211;-63
2022/06/11 05:27:48;;;;;;;1.30;1.20;;;;;;;;;;5039237;28;20309;-63
2022/06/11 05:30:35;;;;;;;1.57;1.40;;;;;;;;;;5043706;28;20213;-63
2022/06/11 05:33:23;;;;;;;1.70;1.60;;;;;;;;;;5036342;28;20213;-62
2022/06/11 05:36:12;;;;;;;1.60;1.50;;;;;;;;;;5040309;28;20199;-63
2022/06/11 05:38:59;;;;;;;2.43;1.53;;;;;;;;;;5043529;28;20308;-62
2022/06/11 05:41:46;;;;;;;1.40;1.30;;;;;;;;;;5036266;28;20217;-63
2022/06/11 05:44:35;;;;;;;1.73;1.30;;;;;;;;;;5039061;28;20227;-63
2022/06/11 05:47:24;;;;;;;1.93;1.50;;;;;;;;;;5038847;28;20294;-63
2022/06/11 05:50:16;;;;;;;1.73;1.60;;;;;;;;;;5041363;28;20214;-63
2022/06/11 05:53:03;;;;;;;1.50;1.40;;;;;;;;;;5042976;28;20209;-64
2022/06/11 05:55:52;;;;;;;2.23;1.80;;;;;;;;;;5043053;28;20230;-63
2022/06/11 05:58:44;;;;;;;1.70;1.60;;;;;;;;;;5040116;28;20227;-62
2022/06/11 06:01:35;;;;;;;1.67;1.57;;;;;;;;;;5029743;28;20234;-63
2022/06/11 06:04:22;;;;;;;3.77;1.60;;;;;;;;;;5034696;28;20207;-63
2022/06/11 06:07:10;;;;;;;1.83;1.73;;;;;;;;;;5042966;28;20677;-62
2022/06/11 06:09:57;;;;;;;2.03;1.83;;;;;;;;;;5044051;28;20346;-62
2022/06/11 06:12:44;;;;;;;2.00;1.80;;;;;;;;;;5037960;28;20786;-63
2022/06/11 06:15:31;;;;;;;2.73;1.60;;;;;;;;;;5040085;28;20334;-63
2022/06/11 06:18:19;;;;;;;2.30;1.73;;;;;;;;;;5038986;28;20207;-63
2022/06/11 06:21:07;;;;;;;1.93;1.80;;;;;;;;;;5040450;28;20681;-63
2022/06/11 06:23:54;;;;;;;2.00;1.73;;;;;;;;;;5042555;28;20209;-63
2022/06/11 06:26:41;;;;;;;1.70;1.50;;;;;;;;;;5044306;28;20255;-63
2022/06/11 06:29:28;;;;;;;2.10;1.80;;;;;;;;;;5041218;28;20730;-64
2022/06/11 06:32:15;;;;;;;2.13;1.67;;;;;;;;;;5044700;28;20272;-64
2022/06/11 06:35:05;;;;;;;2.20;1.57;;;;;;;;;;5034295;28;20221;-60
2022/06/11 06:37:52;;;;;;;2.10;1.70;;;;;;;;;;5041924;28;20589;-60
2022/06/11 06:40:39;;;;;;;3.50;1.90;;;;;;;;;;5028078;28;20340;-63
2022/06/11 06:43:26;;;;;;;2.40;1.73;;;;;;;;;;5042074;28;20211;-62
2022/06/11 06:46:14;;;;;;;2.33;1.90;;;;;;;;;;5046919;28;20216;-63
2022/06/11 06:49:01;;;;;;;1.83;1.47;;;;;;;;;;5042512;28;20251;-63
2022/06/11 06:51:49;;;;;;;2.07;1.87;;;;;;;;;;5039727;28;20321;-63
2022/06/11 06:54:36;;;;;;;2.97;1.63;;;;;;;;;;5038883;28;20216;-61
2022/06/11 06:57:23;;;;;;;2.13;1.67;;;;;;;;;;5040818;28;20779;-62
2022/06/11 07:00:11;;;;;;;4.47;2.10;;;;;;;;;;5039112;28;20228;-61
2022/06/11 07:02:58;;;;;;;2.40;1.70;;;;;;;;;;5035934;28;20224;-61
2022/06/11 07:05:45;;;;;;;1.80;1.70;;;;;;;;;;5039863;28;20629;-61
2022/06/11 07:08:33;;;;;;;2.63;1.70;;;;;;;;;;5042259;28;20602;-61
2022/06/11 07:11:21;;;;;;;2.40;1.90;;;;;;;;;;5039844;28;20249;-61
2022/06/11 07:14:08;;;;;;;3.63;2.22;;;;;;;;;;5043159;28;20335;-61
2022/06/11 07:16:58;;;;;;;1.80;1.70;;;;;;;;;;5039291;28;20204;-61
2022/06/11 07:19:50;;;;;;;2.25;1.83;;;;;;;;;;5041700;28;20269;-60
2022/06/11 07:22:41;;;;;;;1.75;1.63;;;;;;;;;;5043562;28;20293;-60
2022/06/11 07:25:31;;;;;;;2.50;1.73;;;;;;;;;;5040488;28;20227;-61
2022/06/11 07:28:24;;;;;;;2.20;1.75;;;;;;;;;;5043340;28;20882;-61
2022/06/11 07:31:12;;;;;;;2.05;1.83;;;;;;;;;;5040816;28;20275;-61
2022/06/11 07:33:59;;;;;;;2.10;1.92;;;;;;;;;;5041601;28;20219;-61
2022/06/11 07:36:48;;;;;;;2.00;1.73;;;;;;;;;;5036775;28;20667;-61
2022/06/11 07:39:35;;;;;;;2.92;1.95;;;;;;;;;;5033370;28;20565;-61
2022/06/11 07:42:24;;;;;;;1.73;1.55;;;;;;;;;;5039471;28;20231;-61
2022/06/11 07:45:12;;;;;;;3.10;2.17;;;;;;;;;;5034506;28;20235;-61
2022/06/11 07:47:58;;;;;;;2.45;1.90;;;;;;;;;;5036090;28;20208;-63
2022/06/11 07:50:49;;;;;;;2.22;1.85;;;;;;;;;;5038059;28;20291;-62
2022/06/11 07:53:36;;;;;;;2.80;2.08;;;;;;;;;;5038030;28;20574;-62
2022/06/11 07:56:23;;;;;;;3.47;2.10;;;;;;;;;;5041951;28;20196;-62
2022/06/11 07:59:11;;;;;;;1.90;1.70;;;;;;;;;;5037074;28;20739;-62
2022/06/11 08:01:58;;;;;;;2.15;1.77;;;;;;;;;;5039893;28;20241;-60
2022/06/11 08:04:45;;;;;;;2.50;1.88;;;;;;;;;;5035321;28;20212;-61
2022/06/11 08:07:32;;;;;;;2.42;1.92;;;;;;;;;;5038816;28;20215;-62
2022/06/11 08:10:21;;;;;;;2.28;2.05;;;;;;;;;;5037571;28;20209;-59
2022/06/11 08:13:09;;;;;;;3.88;1.98;;;;;;;;;;5038897;28;20211;-59
2022/06/11 08:15:59;;;;;;;2.22;1.75;;;;;;;;;;5039408;28;20208;-60
2022/06/11 08:18:46;;;;;;;1.90;1.70;;;;;;;;;;5034517;28;20212;-62
2022/06/11 08:21:33;;;;;;;2.65;1.90;;;;;;;;;;5038157;28;20235;-63
2022/06/11 08:24:20;;;;;;;2.53;1.83;;;;;;;;;;5039843;28;20253;-62
2022/06/11 08:27:07;;;;;;;2.83;1.90;;;;;;;;;;5043225;28;20707;-62
2022/06/11 08:29:54;;;;;;;2.65;2.10;;;;;;;;;;5038108;28;20203;-60
2022/06/11 08:32:43;;;;;;;3.50;1.95;;;;;;;;;;5032908;28;20212;-60
2022/06/11 08:35:31;;;;;;;2.08;1.88;;;;;;;;;;5040468;28;20208;-61
2022/06/11 08:38:18;;;;;;;2.78;1.90;;;;;;;;;;5035510;28;20204;-61
2022/06/11 08:41:14;;;;;;;2.33;1.75;;;;;;;;;;5037495;28;20239;-61
2022/06/11 08:44:02;;;;;;;2.28;1.83;;;;;;;;;;5033638;28;20237;-61
2022/06/11 08:46:50;;;;;;;1.95;1.70;;;;;;;;;;5039877;28;20293;-61
2022/06/11 08:49:45;;;;;;;2.72;2.10;;;;;;;;;;5044799;28;20660;-62
2022/06/11 08:52:32;;;;;;;2.88;1.92;;;;;;;;;;5046732;28;20231;-62
2022/06/11 08:55:21;;;;;;;3.40;1.80;;;;;;;;;;5038149;28;20256;-62
2022/06/11 08:58:17;;;;;;;1.50;1.40;;;;;;;;;;5038490;28;20246;-61
2022/06/11 09:01:15;;;;;;;2.63;1.90;;;;;;;;;;5035577;28;20262;-61
2022/06/11 09:04:26;;;;;;;1.85;1.70;;;;;;;;;;5038551;28;20219;-61
2022/06/11 09:07:31;;;;;;;2.85;1.80;;;;;;;;;;5039571;28;20204;-61
2022/06/11 09:10:40;;;;;;;2.88;2.13;;;;;;;;;;5038994;28;20202;-62
2022/06/11 09:13:51;;;;;;;2.47;2.10;;;;;;;;;;5035020;28;20226;-61
2022/06/11 09:16:59;;;;;;;2.63;1.98;;;;;;;;;;5007290;28;20238;-62
2022/06/11 09:20:02;;;;;;;2.45;1.80;;;;;;;;;;5036232;28;20266;-61
2022/06/11 09:23:26;;;;;;;2.63;1.95;;;;;;;;;;5034999;28;20705;-61
2022/06/11 09:26:29;;;;;;;2.75;2.13;;;;;;;;;;5042453;28;20687;-62
2022/06/11 09:29:25;;;;;;;2.83;1.73;;;;;;;;;;5013772;28;20212;-63
2022/06/11 09:32:15;;;;;;;1.92;1.83;;;;;;;;;;5022567;28;20209;-61
2022/06/11 09:35:09;;;;;;;2.58;1.80;;;;;;;;;;5020009;28;20209;-61
2022/06/11 09:38:07;;;;;;;2.58;2.10;;;;;;;;;;5014293;28;20207;-61
2022/06/11 09:41:05;;;;;;;2.05;1.85;;;;;;;;;;5017187;28;20222;-62
2022/06/11 09:43:58;;;;;;;2.53;1.90;;;;;;;;;;5012533;28;20205;-61
2022/06/11 09:46:53;;;;;;;2.05;1.73;;;;;;;;;;5021709;28;20788;-62
2022/06/11 09:49:55;;;;;;;2.42;1.85;;;;;;;;;;5026810;28;20209;-61
2022/06/11 09:52:47;;;;;;;2.88;1.63;;;;;;;;;;5021143;28;20213;-61
2022/06/11 09:55:42;;;;;;;2.10;1.83;;;;;;;;;;5021846;28;20658;-61
2022/06/11 09:58:41;;;;;;;3.42;1.80;;;;;;;;;;5018458;28;20258;-61
2022/06/11 10:01:34;;;;;;;2.58;1.83;;;;;;;;;;5018291;28;20298;-62
2022/06/11 10:04:28;;;;;;;2.97;1.90;;;;;;;;;;5021804;28;20218;-62
2022/06/11 10:07:19;;;;;;;2.70;2.42;;;;;;;;;;5024086;28;20346;-62
2022/06/11 10:10:13;;;;;;;2.53;1.73;;;;;;;;;;5024429;28;20204;-61
2022/06/11 10:13:09;;;;;;;2.47;1.85;;;;;;;;;;5024789;28;20209;-62
2022/06/11 10:15:57;;;;;;;1.90;1.60;;;;;;;;;;5013510;28;20657;-62
2022/06/11 10:18:47;;;;;;;2.00;1.48;;;;;;;;;;5019475;28;20208;-62
2022/06/11 10:21:34;;;;;;;2.20;1.65;;;;;;;;;;5022911;28;20701;-62
2022/06/11 10:24:25;;;;;;;2.78;1.75;;;;;;;;;;5020714;28;20296;-62
2022/06/11 10:27:15;;;;;;;2.03;1.60;;;;;;;;;;5029087;28;20695;-62
2022/06/11 10:30:16;;;;;;;4.03;1.58;;;;;;;;;;5046684;28;20668;-61
2022/06/11 10:33:06;;;;;;;2.47;1.85;;;;;;;;;;5042989;28;20302;-62
2022/06/11 10:36:00;;;;;;;2.55;1.70;;;;;;;;;;5049986;28;20332;-61
2022/06/11 10:38:54;;;;;;;2.63;1.65;;;;;;;;;;5043248;28;20269;-61
2022/06/11 10:41:49;;;;;;;1.50;1.40;;;;;;;;;;5037212;28;20235;-62
2022/06/11 10:44:40;;;;;;;3.80;1.70;;;;;;;;;;5041564;28;20217;-62
2022/06/11 10:47:37;;;;;;;2.40;1.80;;;;;;;;;;5038107;28;20246;-62
2022/06/11 10:50:29;;;;;;;2.08;1.60;;;;;;;;;;5043570;28;20226;-61
2022/06/11 10:53:20;;;;;;;1.75;1.60;;;;;;;;;;5042788;28;20211;-61
2022/06/11 10:56:13;;;;;;;2.53;1.50;;;;;;;;;;5040588;28;20235;-62
2022/06/11 10:59:04;;;;;;;2.08;1.70;;;;;;;;;;5042639;28;21012;-62
2022/06/11 11:01:57;;;;;;;2.03;1.75;;;;;;;;;;5041120;28;20250;-60
2022/06/11 11:04:57;;;;;;;3.17;1.90;;;;;;;;;;5037294;28;20208;-62
2022/06/11 11:07:51;;;;;;;1.83;1.60;;;;;;;;;;5045800;28;20680;-62
2022/06/11 11:10:45;;;;;;;2.28;1.80;;;;;;;;;;5039465;28;20663;-62
2022/06/11 11:13:37;;;;;;;2.10;1.42;;;;;;;;;;5041876;28;20730;-62
2022/06/11 11:16:32;;;;;;;1.63;1.52;;;;;;;;;;5044653;28;20660;-62
2022/06/11 11:19:22;;;;;;;2.45;1.75;;;;;;;;;;5037599;28;20703;-62
2022/06/11 11:22:17;;;;;;;2.67;1.80;;;;;;;;;;5044404;28;20211;-62
2022/06/11 11:25:13;;;;;;;2.08;1.60;;;;;;;;;;5042061;28;20205;-62
2022/06/11 11:28:01;;;;;;;2.92;1.60;;;;;;;;;;5030356;28;20591;-62
2022/06/11 11:31:01;;;;;;;4.18;1.60;;;;;;;;;;5037162;28;20203;-62
2022/06/11 11:34:00;;;;;;;2.38;1.80;;;;;;;;;;5042889;28;20365;-62
2022/06/11 11:36:48;;;;;;;2.50;1.80;;;;;;;;;;5037786;28;20204;-62
2022/06/11 11:39:36;;;;;;;2.63;1.63;;;;;;;;;;5036244;28;20230;-62
2022/06/11 11:42:25;;;;;;;2.25;1.40;;;;;;;;;;5039891;28;20204;-61
2022/06/11 11:45:21;;;;;;;2.85;1.92;;;;;;;;;;5042068;28;20204;-62
2022/06/11 11:48:15;;;;;;;2.80;1.60;;;;;;;;;;5040276;28;20215;-61
2022/06/11 11:51:06;;;;;;;2.47;1.88;;;;;;;;;;5044105;28;20281;-62
2022/06/11 11:53:58;;;;;;;3.20;2.10;;;;;;;;;;5039764;28;20881;-62
2022/06/11 11:56:50;;;;;;;2.20;1.58;;;;;;;;;;5041680;28;20215;-61
2022/06/11 11:59:43;;;;;;;2.20;1.45;;;;;;;;;;5041451;28;20643;-62
2022/06/11 12:02:38;;;;;;;3.53;1.85;;;;;;;;;;5042380;28;20226;-62
2022/06/11 12:05:28;;;;;;;2.53;1.70;;;;;;;;;;5036834;28;20219;-62
2022/06/11 12:08:21;;;;;;;2.55;1.70;;;;;;;;;;5036389;28;20299;-61
2022/06/11 12:11:31;;;;;;;2.90;1.70;;;;;;;;;;5036655;28;20207;-64
2022/06/11 12:14:20;;;;;;;2.75;2.03;;;;;;;;;;5038966;28;20200;-62
2022/06/11 12:17:19;;;;;;;3.28;1.85;;;;;;;;;;5045322;28;20219;-62
2022/06/11 12:20:16;;;;;;;2.42;1.45;;;;;;;;;;5043730;28;21133;-62
2022/06/11 12:23:15;;;;;;;3.45;1.75;;;;;;;;;;5039117;28;20208;-62
2022/06/11 12:26:05;;;;;;;2.08;1.70;;;;;;;;;;5039674;28;20204;-62
2022/06/11 12:28:57;;;;;;;2.10;1.67;;;;;;;;;;5040950;28;20256;-61
2022/06/11 12:31:46;;;;;;;3.03;1.67;;;;;;;;;;5044341;28;20911;-62
2022/06/11 12:34:33;;;;;;;2.53;1.95;;;;;;;;;;5041589;28;20686;-62
2022/06/11 12:37:26;;;;;;;1.90;1.45;;;;;;;;;;5044825;28;20577;-62
2022/06/11 12:40:23;;;;;;;2.38;1.70;;;;;;;;;;5037683;28;20208;-62
2022/06/11 12:43:34;;;;;;;2.63;1.90;;;;;;;;;;5041718;28;20251;-62
2022/06/11 12:46:28;;;;;;;4.57;1.85;;;;;;;;;;5034237;28;20215;-62
2022/06/11 12:49:36;;;;;;;2.95;1.70;;;;;;;;;;5043918;28;20610;-62
2022/06/11 12:52:29;;;;;;;1.58;1.48;;;;;;;;;;5040047;28;20218;-62
2022/06/11 12:55:43;;;;;;;2.20;1.77;;;;;;;;;;5040817;28;20271;-62
2022/06/11 12:58:45;;;;;;;2.30;1.80;;;;;;;;;;5041502;28;20531;-61
2022/06/11 13:01:38;;;;;;;2.10;1.58;;;;;;;;;;5042289;28;20230;-61
2022/06/11 13:04:54;;;;;;;2.35;1.75;;;;;;;;;;5046074;28;20313;-61
2022/06/11 13:07:46;;;;;;;1.90;1.67;;;;;;;;;;5041542;28;20225;-62
2022/06/11 13:10:40;;;;;;;2.25;1.75;;;;;;;;;;5041369;28;20560;-61
2022/06/11 13:13:48;;;;;;;3.15;2.00;;;;;;;;;;5050289;28;20214;-62
2022/06/11 13:16:41;;;;;;;2.42;1.80;;;;;;;;;;5043787;28;20253;-62
2022/06/11 13:19:39;;;;;;;3.22;1.70;;;;;;;;;;5046063;28;20205;-62
2022/06/11 13:22:35;;;;;;;3.03;2.00;;;;;;;;;;5044968;28;20235;-61
2022/06/11 13:25:34;;;;;;;3.67;2.05;;;;;;;;;;5042503;28;20221;-62
2022/06/11 13:28:31;;;;;;;3.20;1.90;;;;;;;;;;5042702;28;20707;-62
2022/06/11 13:31:26;;;;;;;2.45;1.73;;;;;;;;;;5047069;28;20214;-62
2022/06/11 13:34:22;;;;;;;4.40;1.70;;;;;;;;;;5043997;28;20223;-62
2022/06/11 13:37:21;;;;;;;2.28;1.90;;;;;;;;;;5046181;28;20213;-62
2022/06/11 13:40:29;;;;;;;2.42;2.00;;;;;;;;;;5042570;28;20197;-61
2022/06/11 13:43:43;;;;;;;3.17;2.10;;;;;;;;;;5044183;28;20603;-61
2022/06/11 13:46:43;;;;;;;2.72;1.73;;;;;;;;;;5046603;28;20210;-61
2022/06/11 13:49:41;;;;;;;2.38;1.75;;;;;;;;;;5044182;28;20226;-61
2022/06/11 13:55:42;;;;;;;3.60;1.90;;;;;;;;;;5043044;28;20211;-61
2022/06/11 13:58:40;;;;;;;2.80;2.00;;;;;;;;;;5040328;28;20211;-61
2022/06/11 14:01:44;;;;;;;2.38;1.77;;;;;;;;;;5043298;28;20604;-62
2022/06/11 14:04:35;;;;;;;3.65;2.03;;;;;;;;;;5041958;28;20288;-61
2022/06/11 14:07:25;;;;;;;1.83;1.55;;;;;;;;;;5043768;28;20673;-62
2022/06/11 14:10:21;;;;;;;2.25;1.52;;;;;;;;;;5043001;28;20739;-62
2022/06/11 14:13:12;;;;;;;2.40;1.80;;;;;;;;;;5036387;28;20201;-62
2022/06/11 14:16:36;;;;;;;2.15;1.80;;;;;;;;;;5036259;28;20272;-61
2022/06/11 14:19:41;;;;;;;2.50;1.90;;;;;;;;;;5041838;28;20210;-62
2022/06/11 14:22:49;;;;;;;1.77;1.67;;;;;;;;;;5045764;28;20223;-62
2022/06/11 14:25:40;;;;;;;4.40;1.98;;;;;;;;;;5042724;28;20619;-62
2022/06/11 14:28:46;;;;;;;2.30;1.63;;;;;;;;;;5041791;28;20246;-63
2022/06/11 14:32:00;;;;;;;2.83;1.98;;;;;;;;;;5045904;28;20215;-62
2022/06/11 14:35:00;;;;;;;3.63;1.80;;;;;;;;;;5047579;28;20199;-62
2022/06/11 14:37:49;;;;;;;2.38;1.83;;;;;;;;;;5044305;28;20690;-62
2022/06/11 14:40:36;;;;;;;1.90;1.52;;;;;;;;;;5044104;28;20214;-62
2022/06/11 14:43:23;;;;;;;3.20;1.55;;;;;;;;;;5039746;28;20210;-62
2022/06/11 14:46:45;;;;;;;2.95;1.77;;;;;;;;;;5042160;28;20208;-62
2022/06/11 14:49:48;;;;;;;2.53;1.92;;;;;;;;;;5044397;28;20647;-61
2022/06/11 14:53:05;;;;;;;2.92;1.60;;;;;;;;;;5043086;28;20210;-61
2022/06/11 14:55:55;;;;;;;2.20;1.80;;;;;;;;;;5043844;28;20219;-63
2022/06/11 14:59:23;;;;;;;2.28;1.50;;;;;;;;;;5040455;28;20780;-61
2022/06/11 15:02:49;;;;;;;3.78;1.90;;;;;;;;;;5034435;28;20238;-62
2022/06/11 15:05:48;;;;;;;2.55;1.60;;;;;;;;;;5037428;28;20360;-61
2022/06/11 15:08:53;;;;;;;1.88;1.45;;;;;;;;;;5044673;28;20207;-61
2022/06/11 15:11:52;;;;;;;2.55;1.55;;;;;;;;;;5037610;28;20287;-61
2022/06/11 15:14:55;;;;;;;2.80;1.75;;;;;;;;;;5037538;28;20256;-62
2022/06/11 15:17:49;;;;;;;2.53;1.55;;;;;;;;;;5038600;28;20542;-61
2022/06/11 15:20:38;;;;;;;3.30;1.75;;;;;;;;;;5039856;28;20207;-62
2022/06/11 15:23:33;;;;;;;2.08;1.70;;;;;;;;;;5039739;28;20310;-61
2022/06/11 15:26:25;;;;;;;1.83;1.38;;;;;;;;;;5039346;28;20220;-62
2022/06/11 15:29:19;;;;;;;2.30;1.60;;;;;;;;;;5035252;28;20300;-61
2022/06/11 15:32:08;;;;;;;1.67;1.57;;;;;;;;;;5038443;28;20214;-61
2022/06/11 15:34:59;;;;;;;2.83;1.58;;;;;;;;;;5039485;28;20756;-61
2022/06/11 15:37:50;;;;;;;1.85;1.70;;;;;;;;;;5041165;28;20669;-62
2022/06/11 15:40:40;;;;;;;2.20;1.42;;;;;;;;;;5039205;28;20660;-62
2022/06/11 15:43:32;;;;;;;1.50;1.40;;;;;;;;;;5038262;28;20287;-61
2022/06/11 15:46:30;;;;;;;3.40;1.70;;;;;;;;;;5042356;28;20207;-62
2022/06/11 15:49:31;;;;;;;2.15;1.40;;;;;;;;;;5035131;28;20650;-61
2022/06/11 15:52:26;;;;;;;2.43;1.70;;;;;;;;;;5048021;28;20270;-61
2022/06/11 15:55:22;;;;;;;2.83;1.70;;;;;;;;;;5041076;28;20573;-62
2022/06/11 15:58:30;;;;;;;1.90;1.70;;;;;;;;;;5038776;28;20206;-62
2022/06/11 16:01:19;;;;;;;2.93;1.90;;;;;;;;;;5043493;28;20234;-61
2022/06/11 16:04:06;;;;;;;2.13;1.77;;;;;;;;;;5036596;28;20244;-61
2022/06/11 16:07:02;;;;;;;2.60;1.53;;;;;;;;;;5045635;28;20208;-61
2022/06/11 16:09:51;;;;;;;1.90;1.63;;;;;;;;;;5040535;28;20290;-61
2022/06/11 16:12:38;;;;;;;2.03;1.73;;;;;;;;;;5036855;28;20204;-66
2022/06/11 16:15:30;;;;;;;1.67;1.57;;;;;;;;;;5036397;28;20690;-61
2022/06/11 16:18:28;;;;;;;2.87;1.70;;;;;;;;;;5036803;28;20212;-62
2022/06/11 16:21:26;;;;;;;2.97;2.10;;;;;;;;;;5035318;28;20207;-61
2022/06/11 16:24:17;;;;;;;4.70;1.90;;;;;;;;;;5037139;28;20679;-61
2022/06/11 16:27:08;;;;;;;1.87;1.77;;;;;;;;;;5043578;28;20232;-61
2022/06/11 16:29:59;;;;;;;2.97;1.70;;;;;;;;;;5032622;28;20660;-62
2022/06/11 16:32:47;;;;;;;3.67;1.87;;;;;;;;;;5038829;28;20694;-61
2022/06/11 16:35:39;;;;;;;2.93;2.00;;;;;;;;;;5041121;28;20204;-71
2022/06/11 16:38:32;;;;;;;2.43;1.77;;;;;;;;;;5038343;28;20226;-62
2022/06/11 16:42:47;;;;;;;2.97;1.70;;;;;;;;;;5039945;28;20652;-62
2022/06/11 16:44:36;;;;;;;2.77;1.77;;;;;;;;;;5035763;28;20583;-61
2022/06/11 16:47:26;;;;;;;2.33;1.90;;;;;;;;;;5040465;28;20208;-60
2022/06/11 16:56:35;;;;;;;2.10;1.77;;;;;;;;;;5035026;28;20610;-61
2022/06/11 16:59:41;;;;;;;2.17;1.70;;;;;;;;;;5044908;28;20263;-61
2022/06/11 17:05:44;;;;;;;2.60;1.70;;;;;;;;;;5042299;28;20239;-62
2022/06/11 17:08:41;;;;;;;1.83;1.70;;;;;;;;;;5043853;28;20214;-61
2022/06/11 17:11:29;;;;;;;2.10;1.90;;;;;;;;;;5043893;28;20652;-61
2022/06/11 17:14:18;;;;;;;1.53;1.43;;;;;;;;;;5041086;28;20194;-61
2022/06/11 17:17:13;;;;;;;2.00;1.80;;;;;;;;;;5038840;28;20613;-61
2022/06/11 17:20:00;;;;;;;2.13;1.80;;;;;;;;;;5040533;28;20308;-63
2022/06/11 17:22:47;;;;;;;1.40;1.30;;;;;;;;;;5043821;28;20237;-61
2022/06/11 17:25:36;;;;;;;2.07;1.70;;;;;;;;;;5040536;28;20268;-61
2022/06/11 17:28:26;;;;;;;2.17;1.77;;;;;;;;;;5038212;28;20310;-62
2022/06/11 17:31:36;;;;;;;2.20;1.93;;;;;;;;;;5042112;28;20890;-61
2022/06/11 17:34:25;;;;;;;2.60;1.50;;;;;;;;;;5048422;28;20267;-61